Data for 07/03/2008

Time Sea-Level Adjusted Pressure Absolute Pressure Temperature Relative Humidity Dew Point   
(mb) (inHg) (mb) (inHg) (C) (F) (%) (C) (F)
00:05 1021 30.15 850 25.1 15.9 60.6 74 11.3 52.3
00:10 1021 30.15 850 25.1 15.8 60.5 74 11.3 52.4
00:15 1021 30.15 850 25.1 15.8 60.4 74 11.3 52.3
00:20 1021 30.15 850 25.1 15.7 60.3 74 11.2 52.2
00:25 1021 30.15 850 25.1 15.7 60.3 75 11.3 52.3
00:30 1021 30.15 850 25.1 15.6 60.1 75 11.2 52.2
00:35 1021 30.15 850 25.1 15.5 60 75 11.2 52.1
00:40 1021 30.15 850 25.1 15.4 59.8 76 11.2 52.2
00:45 1021 30.15 850 25.1 15.3 59.5 76 11.1 52
00:50 1021 30.15 850 25.1 15.2 59.4 76 11 51.9
00:55 1021 30.15 850 25.1 15.1 59.1 76 11 51.8
01:00 1021 30.15 850 25.1 15 58.9 77 11 51.7
01:05 1021 30.15 850 25.1 14.8 58.6 78 11 51.7
01:10 1021 30.15 850 25.1 14.6 58.3 78 10.9 51.7
01:15 1021 30.15 850 25.1 14.6 58.2 79 10.9 51.7
01:20 1021 30.15 850 25.1 14.5 58.1 79 10.9 51.7
01:25 1021 30.15 850 25.1 14.5 58.2 79 10.9 51.7
01:30 1021 30.15 850 25.1 14.5 58.1 79 11 51.8
01:35 1021 30.15 850 25.1 14.4 58 79 10.9 51.6
01:40 1021 30.15 850 25.1 14.5 58.1 78 10.8 51.5
01:45 1021 30.15 850 25.1 14.6 58.2 78 10.9 51.5
01:50 1021 30.15 850 25.1 14.5 58.1 78 10.8 51.5
01:55 1021 30.15 850 25.1 14.5 58 79 10.9 51.6
02:00 1021 30.15 850 25.1 14.4 57.8 79 10.8 51.4
02:05 1021 30.15 850 25.1 14.4 57.9 79 10.8 51.4
02:10 1021 30.15 850 25.1 14.4 57.9 79 10.8 51.4
02:15 1021 30.15 850 25.1 14.3 57.7 79 10.8 51.5
02:20 1021 30.15 850 25.1 14.2 57.6 79 10.8 51.4
02:25 1021 30.15 850 25.1 14.2 57.5 80 10.8 51.4
02:30 1021 30.15 850 25.1 14.1 57.4 80 10.7 51.3
02:35 1021 30.15 850 25.1 14.1 57.3 80 10.7 51.3
02:40 1021 30.15 850 25.1 14 57.3 80 10.7 51.3
02:45 1021 30.15 850 25.1 13.9 57.1 81 10.8 51.4
02:50 1021 30.15 850 25.1 13.6 56.5 82 10.7 51.3
02:55 1021 30.15 850 25.1 13.4 56 83 10.5 51
03:00 1021 30.15 850 25.1 13.4 56 83 10.5 51
03:05 1021 30.15 850 25.1 13.5 56.2 82 10.5 50.9
03:10 1021 30.15 850 25.1 13.5 56.2 82 10.6 51
03:15 1021 30.15 850 25.1 13.3 55.9 84 10.6 51.1
03:20 1021 30.15 850 25.1 13.2 55.7 84 10.5 50.8
03:25 1021 30.15 850 25.1 13.2 55.7 84 10.5 50.9
03:30 1021 30.15 850 25.1 13.2 55.7 83 10.3 50.6
03:35 1021 30.15 850 25.1 13.3 55.9 83 10.5 50.9
03:40 1021 30.15 850 25.1 13.1 55.6 84 10.5 50.9
03:45 1021 30.15 850 25.1 13 55.4 84 10.4 50.7
03:50 1021 30.15 850 25.1 13 55.5 83 10.3 50.5
03:55 1021 30.15 850 25.1 13.1 55.6 84 10.4 50.8
04:00 1021 30.15 850 25.1 12.9 55.3 84 10.3 50.6
04:05 1021 30.15 850 25.1 13 55.3 84 10.3 50.5
04:10 1021 30.15 850 25.1 12.8 55 84 10.1 50.3
04:15 1021 30.15 850 25.1 12.7 54.9 84 10.1 50.3
04:20 1020 30.12 850 25.1 12.7 54.9 84 10.2 50.3
04:25 1020 30.12 850 25.1 12.7 54.9 84 10.1 50.2
04:30 1020 30.12 850 25.1 12.7 54.9 84 10.1 50.2
04:35 1020 30.12 850 25.1 12.7 54.8 84 10.1 50.2
04:40 1020 30.12 850 25.1 12.5 54.5 85 10.1 50.1
04:45 1020 30.12 850 25.1 12.4 54.3 85 10 49.9
04:50 1020 30.12 850 25.1 12.3 54.2 85 9.9 49.9
04:55 1020 30.12 850 25.1 12.3 54.1 85 9.9 49.8
05:00 1020 30.12 850 25.1 12.3 54.1 85 9.9 49.9
05:05 1020 30.12 850 25.1 12.2 54 85 9.8 49.7
05:10 1020 30.12 850 25.1 12.2 53.9 85 9.7 49.4
05:15 1020 30.12 850 25.1 12.1 53.7 85 9.7 49.4
05:20 1020 30.12 850 25.1 12.1 53.8 85 9.6 49.4
05:25 1020 30.12 850 25.1 12 53.7 86 9.7 49.5
05:30 1020 30.12 850 25.1 12 53.6 86 9.7 49.5
05:35 1020 30.12 850 25.1 12 53.6 85 9.6 49.4
05:40 1020 30.12 850 25.1 12 53.6 85 9.6 49.4
05:45 1020 30.12 850 25.1 11.9 53.4 87 9.8 49.6
05:50 1020 30.12 850 25.1 12 53.6 86 9.7 49.5
05:55 1020 30.12 850 25.1 11.9 53.5 86 9.7 49.4
06:00 1020 30.12 850 25.1 12 53.6 85 9.5 49.2
06:05 1020 30.12 850 25.1 12 53.7 84 9.5 49.1
06:10 1020 30.12 850 25.1 12.1 53.7 85 9.7 49.4
06:15 1021 30.15 850 25.1 12.3 54.1 84 9.7 49.5
06:20 1021 30.15 850 25.1 12.5 54.5 83 9.7 49.5
06:25 1021 30.15 850 25.1 12.4 54.4 84 9.7 49.5
06:30 1021 30.15 850 25.1 12.4 54.2 83 9.6 49.2
06:35 1021 30.15 850 25.1 12.4 54.3 83 9.6 49.3
06:40 1021 30.15 850 25.1 12.5 54.5 83 9.7 49.4
06:45 1021 30.15 850 25.1 12.7 54.8 83 9.9 49.8
06:50 1021 30.15 850 25.1 13 55.3 81 9.8 49.7
06:55 1021 30.15 850 25.1 13.2 55.7 81 10 49.9
07:00 1021 30.15 850 25.1 13.3 56 80 9.9 49.9
07:05 1021 30.15 850 25.1 13.4 56.1 80 10 49.9
07:10 1021 30.15 850 25.1 13.6 56.4 78 9.9 49.8
07:15 1021 30.15 850 25.1 13.8 56.8 78 10.1 50.2
07:20 1021 30.15 850 25.1 14.1 57.4 78 10.3 50.5
07:25 1021 30.15 850 25.1 14.2 57.6 78 10.5 51
07:30 1021 30.15 850 25.1 14.3 57.7 77 10.3 50.5
07:35 1021 30.15 850 25.1 14.6 58.3 75 10.3 50.6
07:40 1021 30.15 850 25.1 15 59 72 10 49.9
07:45 1021 30.15 850 25.1 15.2 59.3 72 10.1 50.2
07:50 1021 30.15 850 25.1 15.5 59.9 69 9.9 49.9
07:55 1021 30.15 850 25.1 16.1 61 68 10.3 50.6
08:00 1021 30.15 850 25.1 16.5 61.8 67 10.5 50.8
08:05 1021 30.15 850 25.1 16.7 62 66 10.3 50.5
08:10 1021 30.15 850 25.1 17.4 63.3 63 10.4 50.8
08:15 1021 30.15 850 25.1 18 64.3 61 10.4 50.8
08:20 1021 30.15 850 25.1 18 64.3 62 10.6 51
08:25 1021 30.15 850 25.1 18.2 64.8 59 10.3 50.5
08:30 1021 30.15 850 25.1 18.5 65.4 59 10.5 50.9
08:35 1021 30.15 850 25.1 18.9 66 57 10.2 50.4
08:40 1021 30.15 850 25.1 19 66.3 58 10.8 51.5
08:45 1021 30.15 850 25.1 18.7 65.6 58 10.3 50.6
08:50 1021 30.15 850 25.1 19 66.2 57 10.5 50.9
08:55 1021 30.15 850 25.1 18.6 65.5 59 10.5 50.9
09:00 1021 30.15 850 25.1 19.3 66.8 56 10.5 50.9
09:05 1021 30.15 850 25.1 19.5 67 59 11.2 52.2
09:10 1021 30.15 850 25.1 19.4 66.9 56 10.6 51.1
09:15 1021 30.15 850 25.1 19.5 67 59 11.4 52.5
09:20 1021 30.15 850 25.1 19.5 67.1 56 10.6 51.1
09:25 1021 30.15 850 25.1 20.4 68.8 54 10.9 51.6
09:30 1021 30.15 850 25.1 20.6 69.1 54 11 51.9
09:35 1021 30.15 850 25.1 20.7 69.3 52 10.7 51.2
09:40 1021 30.15 850 25.1 21 69.7 53 11.2 52.1
09:45 1021 30.15 850 25.1 21.2 70.2 53 11.5 52.7
09:50 1021 30.15 850 25.1 21.4 70.4 52 11.2 52.1
09:55 1021 30.15 850 25.1 21.5 70.7 51 11 51.9
10:00 1021 30.15 850 25.1 21.6 70.8 52 11.4 52.4
10:05 1021 30.15 850 25.1 21.5 70.6 53 11.5 52.7
10:10 1021 30.15 850 25.1 21.3 70.4 52 11.2 52.1
10:15 1021 30.15 850 25.1 21.5 70.8 51 11.2 52.1
10:20 1021 30.15 850 25.1 21.8 71.2 50 11.1 51.9
10:25 1021 30.15 850 25.1 22.3 72.2 50 11.5 52.7
10:30 1021 30.15 850 25.1 22.8 73.1 48 11.3 52.4
10:35 1021 30.15 850 25.1 22.3 72.2 50 11.6 53
10:40 1021 30.15 850 25.1 22.2 71.9 50 11.3 52.4
10:45 1021 30.15 850 25.1 22.7 72.9 50 11.9 53.5
10:50 1021 30.15 850 25.1 22.9 73.2 47 11.2 52.1
10:55 1021 30.15 850 25.1 23.6 74.4 48 12 53.7
11:00 1021 30.15 850 25.1 23.4 74.2 47 11.6 52.9
11:05 1021 30.15 850 25.1 23.5 74.3 47 11.9 53.4
11:10 1021 30.15 850 25.1 23.3 74 47 11.7 53
11:15 1021 30.15 850 25.1 23.8 74.8 46 11.7 53
11:20 1021 30.15 850 25.1 23.6 74.5 47 11.7 53.1
11:25 1021 30.15 850 25.1 23.5 74.4 46 11.4 52.6
11:30 1021 30.15 850 25.1 24.1 75.4 46 11.8 53.2
11:35 1021 30.15 850 25.1 24.5 76.1 45 12 53.6
11:40 1021 30.15 850 25.1 24.2 75.6 46 12 53.6
11:45 1021 30.15 850 25.1 24.3 75.7 45 11.7 53
11:50 1020 30.12 850 25.1 23.7 74.6 45 11.3 52.3
11:55 1020 30.12 850 25.1 24.3 75.8 43 11 51.9
12:00 1020 30.12 850 25.1 24.7 76.4 44 11.9 53.5
12:05 1020 30.12 850 25.1 25 76.9 43 11.9 53.3
12:10 1020 30.12 850 25.1 24.6 76.2 44 11.7 53
12:15 1020 30.12 850 25.1 24.8 76.7 45 12.3 54.1
12:20 1020 30.12 849 25.07 24.8 76.6 44 11.9 53.3
12:25 1020 30.12 849 25.07 25.6 78.2 40 11.3 52.4
12:30 1020 30.12 849 25.07 25.2 77.4 41 11.4 52.6
12:35 1020 30.12 849 25.07 24.5 76.1 45 12 53.6
12:40 1020 30.12 849 25.07 24.9 76.7 40 10.5 50.8
12:45 1020 30.12 849 25.07 25.9 78.5 38 10.8 51.4
12:50 1020 30.12 849 25.07 25.5 78 36 9.7 49.5
12:55 1020 30.12 849 25.07 25.2 77.4 36 9.2 48.6
13:00 1020 30.12 849 25.07 25.4 77.7 34 8.6 47.5
13:05 1020 30.12 849 25.07 26.2 79.1 35 9.8 49.7
13:10 1020 30.12 849 25.07 25.5 77.9 35 9.1 48.3
13:15 1020 30.12 849 25.07 26.3 79.3 33 8.9 47.9
13:20 1020 30.12 849 25.07 25.9 78.7 35 9.5 49.1
13:25 1020 30.12 849 25.07 25.6 78.1 34 8.9 48
13:30 1020 30.12 849 25.07 26 78.9 32 8.5 47.4
13:35 1020 30.12 849 25.07 27.2 81 30 8.3 47
13:40 1020 30.12 849 25.07 27.4 81.2 31 8.9 47.9
13:45 1020 30.12 849 25.07 27.4 81.3 29 8.1 46.5
13:50 1020 30.12 849 25.07 27.3 81.1 28 7.7 45.9
13:55 1020 30.12 849 25.07 27.9 82.2 28 7.8 46
14:00 1020 30.12 849 25.07 28.1 82.6 27 7.6 45.6
14:05 1020 30.12 849 25.07 27.5 81.4 30 8.4 47.2
14:10 1020 30.12 849 25.07 27.8 82 29 8.1 46.6
14:15 1019 30.09 849 25.07 28.1 82.5 29 8.5 47.2
14:20 1019 30.09 849 25.07 27.9 82.1 28 8.2 46.7
14:25 1019 30.09 849 25.07 27.8 82 29 8.6 47.5
14:30 1019 30.09 849 25.07 27.4 81.4 30 8.7 47.6
14:35 1019 30.09 849 25.07 27.8 82 30 8.9 48
14:40 1019 30.09 849 25.07 27.5 81.4 32 9.7 49.4
14:45 1019 30.09 849 25.07 27.3 81.2 30 8.5 47.2
14:50 1019 30.09 848 25.04 27.2 80.9 30 8.3 46.9
14:55 1019 30.09 848 25.04 26.8 80.3 30 8.3 46.9
15:00 1019 30.09 848 25.04 27.6 81.7 27 7.2 45
15:05 1019 30.09 848 25.04 27.7 81.9 28 7.9 46.1
15:10 1019 30.09 848 25.04 28.2 82.8 27 7.6 45.7
15:15 1019 30.09 848 25.04 28.7 83.7 25 7.3 45.2
15:20 1019 30.09 848 25.04 29.6 85.2 24 7.5 45.5
15:25 1019 30.09 848 25.04 29.3 84.8 27 8.5 47.4
15:30 1019 30.09 848 25.04 28.6 83.5 26 7.7 45.8
15:35 1019 30.09 848 25.04 28.2 82.8 26 7.4 45.4
15:40 1019 30.09 848 25.04 28 82.3 27 7.6 45.7
15:45 1019 30.09 848 25.04 28.1 82.5 26 7 44.7
15:50 1019 30.09 848 25.04 28.3 83 24 6.4 43.5
15:55 1019 30.09 848 25.04 28.4 83.1 26 7.2 44.9
16:00 1019 30.09 848 25.04 28.5 83.4 24 6.6 43.9
16:05 1019 30.09 848 25.04 29.3 84.7 24 6.9 44.4
16:10 1019 30.09 848 25.04 29.3 84.7 25 7.4 45.3
16:15 1019 30.09 848 25.04 28.3 82.9 26 7.5 45.5
16:20 1019 30.09 848 25.04 28.3 82.9 26 7.2 44.9
16:25 1018 30.06 848 25.04 28.5 83.3 25 7.2 44.9
16:30 1019 30.09 848 25.04 28.7 83.6 24 6.6 43.9
16:35 1018 30.06 848 25.04 29.6 85.2 23 6.7 44
16:40 1018 30.06 848 25.04 29.8 85.7 24 7.7 45.8
16:45 1018 30.06 848 25.04 28.4 83.2 26 7.3 45.1
16:50 1018 30.06 848 25.04 29.1 84.4 24 6.7 44
16:55 1018 30.06 847 25.01 29.6 85.3 23 6.8 44.3
17:00 1018 30.06 847 25.01 29.9 85.8 24 7.2 45
17:05 1018 30.06 847 25.01 30.6 87.1 22 7.1 44.8
17:10 1018 30.06 847 25.01 30.7 87.2 23 7.7 45.9
17:15 1018 30.06 847 25.01 30.5 86.8 23 7.2 45
17:20 1018 30.06 847 25.01 30.6 87 22 7.1 44.7
17:25 1018 30.06 847 25.01 30.3 86.6 22 6.8 44.2
17:30 1018 30.06 847 25.01 30.4 86.7 22 6.7 44.1
17:35 1018 30.06 847 25.01 30.3 86.5 23 7 44.6
17:40 1018 30.06 847 25.01 30 86 22 6.2 43.2
17:45 1018 30.06 847 25.01 29.9 85.8 22 6.4 43.4
17:50 1018 30.06 847 25.01 30.2 86.4 23 6.9 44.4
17:55 1018 30.06 847 25.01 29.7 85.5 23 6.5 43.8
18:00 1018 30.06 847 25.01 29.6 85.2 23 6.8 44.2
18:05 1018 30.06 847 25.01 29.9 85.7 23 7 44.7
18:10 1018 30.06 847 25.01 29.5 85.1 23 6.7 44.1
18:15 1018 30.06 847 25.01 29 84.2 24 6.6 43.8
18:20 1017 30.03 847 25.01 29.2 84.5 22 5.6 42.1
18:25 1017 30.03 847 25.01 29.3 84.7 23 6.4 43.4
18:30 1017 30.03 847 25.01 29.6 85.2 22 5.8 42.5
18:35 1017 30.03 846 24.98 29.7 85.4 24 7 44.6
18:40 1017 30.03 846 24.98 28.8 83.9 24 6.4 43.5
18:45 1017 30.03 846 24.98 28.8 83.9 24 6.7 44
18:50 1017 30.03 846 24.98 28.8 83.9 25 6.9 44.5
18:55 1017 30.03 846 24.98 28.6 83.5 26 7.4 45.3
19:00 1017 30.03 846 24.98 28.8 83.9 23 6.1 43
19:05 1017 30.03 846 24.98 28.7 83.6 26 7.9 46.1
19:10 1017 30.03 846 24.98 28.6 83.4 26 7.3 45.1
19:15 1017 30.03 846 24.98 28.6 83.4 24 6.2 43.2
19:20 1017 30.03 846 24.98 28.6 83.4 23 5.9 42.7
19:25 1017 30.03 846 24.98 28.6 83.4 23 5.4 41.8
19:30 1017 30.03 846 24.98 28.5 83.3 24 6.2 43.2
19:35 1017 30.03 846 24.98 28.3 82.9 24 6 42.7
19:40 1017 30.03 846 24.98 28.3 83 23 5.3 41.5
19:45 1017 30.03 846 24.98 28.3 82.9 21 4.4 40
19:50 1017 30.03 846 24.98 28.3 82.9 23 5.5 41.9
19:55 1017 30.03 846 24.98 28.1 82.6 24 6.2 43.2
20:00 1017 30.03 846 24.98 27.9 82.2 27 7.3 45.2
20:05 1017 30.03 846 24.98 27.6 81.6 26 6.6 43.9
20:10 1017 30.03 846 24.98 27.3 81.2 25 6.1 43
20:15 1017 30.03 846 24.98 27 80.6 27 6.4 43.6
20:20 1016 30 846 24.98 26.7 80.1 27 6.3 43.4
20:25 1017 30.03 846 24.98 26.6 79.8 27 6.4 43.6
20:30 1017 30.03 846 24.98 26.4 79.5 27 6.2 43.1
20:35 1017 30.03 846 24.98 26.3 79.3 28 6.5 43.6
20:40 1017 30.03 846 24.98 26 78.8 29 6.7 44
20:45 1017 30.03 846 24.98 25.7 78.2 30 6.8 44.3
20:50 1017 30.03 846 24.98 25.5 77.8 30 7 44.5
20:55 1017 30.03 847 25.01 25.3 77.5 30 6.9 44.4
21:00 1018 30.06 847 25.01 25.2 77.4 31 7.1 44.8
21:05 1018 30.06 847 25.01 25.3 77.5 30 6.6 43.9
21:10 1019 30.09 848 25.04 25.6 78 34 8.7 47.7
21:15 1019 30.09 848 25.04 25.1 77.1 34 8.4 47.1
21:20 1019 30.09 848 25.04 25 77 31 7 44.6
21:25 1019 30.09 848 25.04 24.8 76.6 31 6.9 44.4
21:30 1019 30.09 848 25.04 24.3 75.7 32 7 44.6
21:35 1019 30.09 848 25.04 24.1 75.4 35 8 46.4
21:40 1019 30.09 848 25.04 24.3 75.7 33 7.1 44.9
21:45 1018 30.06 848 25.04 24.1 75.3 37 8.6 47.5
21:50 1017 30.03 847 25.01 22.4 72.4 38 7.5 45.4
21:55 1018 30.06 847 25.01 22.9 73.2 29 4.2 39.6
22:00 1018 30.06 847 25.01 23.9 75 33 6.7 44
22:05 1018 30.06 847 25.01 23.6 74.4 32 6.2 43.1
22:10 1018 30.06 847 25.01 23.3 74 36 7.5 45.6
22:15 1018 30.06 848 25.04 22.1 71.8 44 9.5 49.1
22:20 1019 30.09 848 25.04 21.4 70.6 43 8.4 47.1
22:25 1019 30.09 848 25.04 21.4 70.5 45 9.1 48.3
22:30 1019 30.09 848 25.04 21.7 71 41 8 46.3
22:35 1019 30.09 848 25.04 22.3 72.1 38 7.6 45.7
22:40 1019 30.09 848 25.04 22.6 72.6 40 8.3 47
22:45 1019 30.09 848 25.04 22.2 71.9 42 9 48.2
22:50 1019 30.09 848 25.04 21.8 71.2 44 9 48.2
22:55 1019 30.09 848 25.04 21.5 70.7 44 8.9 48.1
23:00 1019 30.09 848 25.04 21.5 70.7 40 7.7 45.8
23:05 1019 30.09 849 25.07 21.9 71.4 39 7.4 45.2
23:10 1019 30.09 849 25.07 22 71.6 39 7.7 45.8
23:15 1019 30.09 848 25.04 21.7 71.1 39 7.4 45.3
23:20 1019 30.09 848 25.04 21.6 70.8 37 6.3 43.3
23:25 1019 30.09 848 25.04 22.2 71.9 33 5.5 41.9
23:30 1019 30.09 848 25.04 22.3 72.2 34 5.8 42.4
23:35 1019 30.09 848 25.04 22.4 72.4 34 5.8 42.5
23:40 1020 30.12 849 25.07 22.6 72.7 34 6 42.8
23:45 1020 30.12 849 25.07 22.6 72.7 35 6.7 44
23:50 1020 30.12 849 25.07 22.6 72.6 36 7.1 44.8
23:55 1020 30.12 849 25.07 22.1 71.8 39 7.6 45.7
24:00 1020 30.12 849 25.07 21.8 71.2 40 7.9 46.1